sensor_id;sensor_type;location;lat;lon;timestamp;P1;durP1;ratioP1;P2;durP2;ratioP2
12681;SDS011;6405;59.208;18.216;2023-12-29T00:01:33;1.40;;;1.10;;
12681;SDS011;6405;59.208;18.216;2023-12-29T00:03:59;0.90;;;0.80;;
12681;SDS011;6405;59.208;18.216;2023-12-29T00:06:25;1.67;;;0.97;;
12681;SDS011;6405;59.208;18.216;2023-12-29T00:08:51;2.40;;;1.30;;
12681;SDS011;6405;59.208;18.216;2023-12-29T00:11:17;1.47;;;0.80;;
12681;SDS011;6405;59.208;18.216;2023-12-29T00:13:44;2.47;;;1.13;;
12681;SDS011;6405;59.208;18.216;2023-12-29T00:16:10;1.43;;;0.90;;
12681;SDS011;6405;59.208;18.216;2023-12-29T00:18:38;1.37;;;0.90;;
12681;SDS011;6405;59.208;18.216;2023-12-29T00:21:04;1.10;;;0.90;;
12681;SDS011;6405;59.208;18.216;2023-12-29T00:23:30;1.40;;;1.10;;
12681;SDS011;6405;59.208;18.216;2023-12-29T00:25:56;2.53;;;0.73;;
12681;SDS011;6405;59.208;18.216;2023-12-29T00:28:22;1.77;;;0.80;;
12681;SDS011;6405;59.208;18.216;2023-12-29T00:30:47;1.07;;;0.90;;
12681;SDS011;6405;59.208;18.216;2023-12-29T00:33:13;3.37;;;1.00;;
12681;SDS011;6405;59.208;18.216;2023-12-29T00:35:39;2.00;;;0.80;;
12681;SDS011;6405;59.208;18.216;2023-12-29T00:38:05;1.37;;;0.87;;
12681;SDS011;6405;59.208;18.216;2023-12-29T00:40:31;1.17;;;0.70;;
12681;SDS011;6405;59.208;18.216;2023-12-29T00:42:57;1.57;;;0.80;;
12681;SDS011;6405;59.208;18.216;2023-12-29T00:45:24;0.90;;;0.60;;
12681;SDS011;6405;59.208;18.216;2023-12-29T00:47:50;1.30;;;0.67;;
12681;SDS011;6405;59.208;18.216;2023-12-29T00:50:16;2.17;;;1.00;;
12681;SDS011;6405;59.208;18.216;2023-12-29T00:52:42;1.30;;;0.90;;
12681;SDS011;6405;59.208;18.216;2023-12-29T00:55:08;2.20;;;1.07;;
12681;SDS011;6405;59.208;18.216;2023-12-29T00:57:34;1.50;;;0.83;;
12681;SDS011;6405;59.208;18.216;2023-12-29T01:00:00;1.13;;;0.70;;
12681;SDS011;6405;59.208;18.216;2023-12-29T01:02:26;1.33;;;0.63;;
12681;SDS011;6405;59.208;18.216;2023-12-29T01:04:52;1.57;;;0.70;;
12681;SDS011;6405;59.208;18.216;2023-12-29T01:07:17;1.33;;;0.73;;
12681;SDS011;6405;59.208;18.216;2023-12-29T01:09:43;1.53;;;1.17;;
12681;SDS011;6405;59.208;18.216;2023-12-29T01:12:09;1.00;;;0.70;;
12681;SDS011;6405;59.208;18.216;2023-12-29T01:14:34;2.10;;;1.00;;
12681;SDS011;6405;59.208;18.216;2023-12-29T01:17:00;1.53;;;1.00;;
12681;SDS011;6405;59.208;18.216;2023-12-29T01:19:26;1.80;;;1.10;;
12681;SDS011;6405;59.208;18.216;2023-12-29T01:21:52;0.73;;;0.60;;
12681;SDS011;6405;59.208;18.216;2023-12-29T01:24:17;1.83;;;1.10;;
12681;SDS011;6405;59.208;18.216;2023-12-29T01:26:43;1.80;;;1.20;;
12681;SDS011;6405;59.208;18.216;2023-12-29T01:29:09;3.50;;;2.60;;
12681;SDS011;6405;59.208;18.216;2023-12-29T01:31:34;4.00;;;1.20;;
12681;SDS011;6405;59.208;18.216;2023-12-29T01:34:00;4.03;;;1.40;;
12681;SDS011;6405;59.208;18.216;2023-12-29T01:36:26;2.63;;;1.40;;
12681;SDS011;6405;59.208;18.216;2023-12-29T01:38:51;1.97;;;1.33;;
12681;SDS011;6405;59.208;18.216;2023-12-29T01:41:20;1.77;;;1.27;;
12681;SDS011;6405;59.208;18.216;2023-12-29T01:46:31;2.63;;;1.53;;
12681;SDS011;6405;59.208;18.216;2023-12-29T01:48:59;3.77;;;1.60;;
12681;SDS011;6405;59.208;18.216;2023-12-29T01:51:26;4.33;;;1.80;;
12681;SDS011;6405;59.208;18.216;2023-12-29T01:53:52;2.47;;;1.77;;
12681;SDS011;6405;59.208;18.216;2023-12-29T01:56:20;3.47;;;1.90;;
12681;SDS011;6405;59.208;18.216;2023-12-29T01:58:47;3.87;;;1.80;;
12681;SDS011;6405;59.208;18.216;2023-12-29T02:01:15;2.13;;;1.50;;
12681;SDS011;6405;59.208;18.216;2023-12-29T02:03:43;3.47;;;1.90;;
12681;SDS011;6405;59.208;18.216;2023-12-29T02:06:09;2.93;;;1.73;;
12681;SDS011;6405;59.208;18.216;2023-12-29T02:08:38;3.63;;;1.80;;
12681;SDS011;6405;59.208;18.216;2023-12-29T02:11:07;3.33;;;2.10;;
12681;SDS011;6405;59.208;18.216;2023-12-29T02:13:33;2.17;;;1.60;;
12681;SDS011;6405;59.208;18.216;2023-12-29T02:16:00;2.33;;;1.83;;
12681;SDS011;6405;59.208;18.216;2023-12-29T02:18:37;4.00;;;1.57;;
12681;SDS011;6405;59.208;18.216;2023-12-29T02:21:05;2.67;;;1.80;;
12681;SDS011;6405;59.208;18.216;2023-12-29T02:23:31;4.93;;;1.53;;
12681;SDS011;6405;59.208;18.216;2023-12-29T02:25:58;3.60;;;1.77;;
12681;SDS011;6405;59.208;18.216;2023-12-29T02:28:29;4.97;;;1.67;;
12681;SDS011;6405;59.208;18.216;2023-12-29T02:31:00;2.53;;;1.70;;
12681;SDS011;6405;59.208;18.216;2023-12-29T02:33:31;3.20;;;1.80;;
12681;SDS011;6405;59.208;18.216;2023-12-29T02:36:01;3.33;;;1.80;;
12681;SDS011;6405;59.208;18.216;2023-12-29T02:38:28;7.83;;;2.60;;
12681;SDS011;6405;59.208;18.216;2023-12-29T02:40:56;3.67;;;1.80;;
12681;SDS011;6405;59.208;18.216;2023-12-29T02:43:22;7.90;;;2.00;;
12681;SDS011;6405;59.208;18.216;2023-12-29T02:45:48;2.67;;;1.80;;
12681;SDS011;6405;59.208;18.216;2023-12-29T02:48:13;3.90;;;1.90;;
12681;SDS011;6405;59.208;18.216;2023-12-29T02:50:39;3.73;;;2.13;;
12681;SDS011;6405;59.208;18.216;2023-12-29T02:53:05;5.83;;;2.20;;
12681;SDS011;6405;59.208;18.216;2023-12-29T02:55:31;4.80;;;1.90;;
12681;SDS011;6405;59.208;18.216;2023-12-29T02:57:56;5.80;;;2.10;;
12681;SDS011;6405;59.208;18.216;2023-12-29T03:00:22;4.73;;;2.07;;
12681;SDS011;6405;59.208;18.216;2023-12-29T03:02:48;6.33;;;2.33;;
12681;SDS011;6405;59.208;18.216;2023-12-29T03:05:14;4.30;;;2.03;;
12681;SDS011;6405;59.208;18.216;2023-12-29T03:07:40;4.70;;;2.40;;
12681;SDS011;6405;59.208;18.216;2023-12-29T03:10:06;3.93;;;2.13;;
12681;SDS011;6405;59.208;18.216;2023-12-29T03:12:32;3.40;;;2.40;;
12681;SDS011;6405;59.208;18.216;2023-12-29T03:14:58;5.53;;;2.30;;
12681;SDS011;6405;59.208;18.216;2023-12-29T03:17:24;3.30;;;2.17;;
12681;SDS011;6405;59.208;18.216;2023-12-29T03:19:50;4.30;;;2.13;;
12681;SDS011;6405;59.208;18.216;2023-12-29T03:22:15;10.43;;;2.67;;
12681;SDS011;6405;59.208;18.216;2023-12-29T03:24:41;5.83;;;2.33;;
12681;SDS011;6405;59.208;18.216;2023-12-29T03:27:07;10.60;;;3.93;;
12681;SDS011;6405;59.208;18.216;2023-12-29T03:29:33;3.77;;;1.93;;
12681;SDS011;6405;59.208;18.216;2023-12-29T03:31:59;2.97;;;2.63;;
12681;SDS011;6405;59.208;18.216;2023-12-29T03:34:25;5.53;;;2.23;;
12681;SDS011;6405;59.208;18.216;2023-12-29T03:36:50;2.93;;;1.87;;
12681;SDS011;6405;59.208;18.216;2023-12-29T03:39:16;6.60;;;2.70;;
12681;SDS011;6405;59.208;18.216;2023-12-29T03:41:42;5.30;;;2.10;;
12681;SDS011;6405;59.208;18.216;2023-12-29T03:44:08;11.30;;;2.47;;
12681;SDS011;6405;59.208;18.216;2023-12-29T03:46:33;5.20;;;1.93;;
12681;SDS011;6405;59.208;18.216;2023-12-29T03:48:59;7.67;;;2.30;;
12681;SDS011;6405;59.208;18.216;2023-12-29T03:51:25;4.03;;;2.20;;
12681;SDS011;6405;59.208;18.216;2023-12-29T03:53:51;6.77;;;2.27;;
12681;SDS011;6405;59.208;18.216;2023-12-29T03:56:17;6.40;;;2.73;;
12681;SDS011;6405;59.208;18.216;2023-12-29T03:58:44;3.50;;;1.90;;
12681;SDS011;6405;59.208;18.216;2023-12-29T04:01:10;6.70;;;2.17;;
12681;SDS011;6405;59.208;18.216;2023-12-29T04:03:40;3.40;;;2.10;;
12681;SDS011;6405;59.208;18.216;2023-12-29T04:06:06;7.40;;;2.27;;
12681;SDS011;6405;59.208;18.216;2023-12-29T04:08:32;7.13;;;1.93;;
12681;SDS011;6405;59.208;18.216;2023-12-29T04:10:59;5.50;;;1.90;;
12681;SDS011;6405;59.208;18.216;2023-12-29T04:13:24;4.33;;;1.77;;
12681;SDS011;6405;59.208;18.216;2023-12-29T04:15:50;4.53;;;1.57;;
12681;SDS011;6405;59.208;18.216;2023-12-29T04:18:16;3.73;;;1.60;;
12681;SDS011;6405;59.208;18.216;2023-12-29T04:20:42;4.07;;;1.50;;
12681;SDS011;6405;59.208;18.216;2023-12-29T04:23:08;6.80;;;1.90;;
12681;SDS011;6405;59.208;18.216;2023-12-29T04:25:34;3.67;;;1.40;;
12681;SDS011;6405;59.208;18.216;2023-12-29T04:28:00;4.60;;;1.60;;
12681;SDS011;6405;59.208;18.216;2023-12-29T04:30:26;8.23;;;1.63;;
12681;SDS011;6405;59.208;18.216;2023-12-29T04:32:51;3.00;;;1.23;;
12681;SDS011;6405;59.208;18.216;2023-12-29T04:35:17;2.90;;;1.17;;
12681;SDS011;6405;59.208;18.216;2023-12-29T04:37:45;4.33;;;1.40;;
12681;SDS011;6405;59.208;18.216;2023-12-29T04:40:11;15.53;;;3.33;;
12681;SDS011;6405;59.208;18.216;2023-12-29T04:42:37;4.50;;;1.20;;
12681;SDS011;6405;59.208;18.216;2023-12-29T04:45:03;1.40;;;0.97;;
12681;SDS011;6405;59.208;18.216;2023-12-29T04:47:30;2.33;;;1.00;;
12681;SDS011;6405;59.208;18.216;2023-12-29T04:49:56;5.80;;;1.13;;
12681;SDS011;6405;59.208;18.216;2023-12-29T04:52:22;2.50;;;0.70;;
12681;SDS011;6405;59.208;18.216;2023-12-29T04:54:48;1.10;;;0.70;;
12681;SDS011;6405;59.208;18.216;2023-12-29T04:57:13;1.20;;;0.77;;
12681;SDS011;6405;59.208;18.216;2023-12-29T04:59:39;1.17;;;0.50;;
12681;SDS011;6405;59.208;18.216;2023-12-29T05:02:05;1.43;;;0.60;;
12681;SDS011;6405;59.208;18.216;2023-12-29T05:04:31;0.80;;;0.40;;
12681;SDS011;6405;59.208;18.216;2023-12-29T05:06:56;4.80;;;0.50;;
12681;SDS011;6405;59.208;18.216;2023-12-29T05:09:22;0.80;;;0.50;;
12681;SDS011;6405;59.208;18.216;2023-12-29T05:11:48;4.03;;;0.80;;
12681;SDS011;6405;59.208;18.216;2023-12-29T05:14:14;1.50;;;0.70;;
12681;SDS011;6405;59.208;18.216;2023-12-29T05:16:40;3.17;;;0.60;;
12681;SDS011;6405;59.208;18.216;2023-12-29T05:19:06;0.50;;;0.40;;
12681;SDS011;6405;59.208;18.216;2023-12-29T05:21:32;2.17;;;0.70;;
12681;SDS011;6405;59.208;18.216;2023-12-29T05:23:58;2.93;;;0.60;;
12681;SDS011;6405;59.208;18.216;2023-12-29T05:26:24;3.23;;;0.50;;
12681;SDS011;6405;59.208;18.216;2023-12-29T05:28:50;3.37;;;0.43;;
12681;SDS011;6405;59.208;18.216;2023-12-29T05:31:16;1.90;;;0.60;;
12681;SDS011;6405;59.208;18.216;2023-12-29T05:33:42;3.30;;;0.60;;
12681;SDS011;6405;59.208;18.216;2023-12-29T05:36:09;1.77;;;0.47;;
12681;SDS011;6405;59.208;18.216;2023-12-29T05:38:36;4.40;;;0.60;;
12681;SDS011;6405;59.208;18.216;2023-12-29T05:41:03;1.30;;;0.60;;
12681;SDS011;6405;59.208;18.216;2023-12-29T05:43:32;5.90;;;0.60;;
12681;SDS011;6405;59.208;18.216;2023-12-29T05:45:59;2.13;;;0.50;;
12681;SDS011;6405;59.208;18.216;2023-12-29T05:48:25;6.57;;;1.27;;
12681;SDS011;6405;59.208;18.216;2023-12-29T05:50:51;6.23;;;1.03;;
12681;SDS011;6405;59.208;18.216;2023-12-29T05:53:17;1.40;;;0.70;;
12681;SDS011;6405;59.208;18.216;2023-12-29T05:55:43;9.30;;;1.10;;
12681;SDS011;6405;59.208;18.216;2023-12-29T05:58:10;7.23;;;0.80;;
12681;SDS011;6405;59.208;18.216;2023-12-29T06:00:36;1.70;;;0.50;;
12681;SDS011;6405;59.208;18.216;2023-12-29T06:03:03;3.20;;;0.60;;
12681;SDS011;6405;59.208;18.216;2023-12-29T06:05:29;3.57;;;0.50;;
12681;SDS011;6405;59.208;18.216;2023-12-29T06:07:55;4.60;;;1.20;;
12681;SDS011;6405;59.208;18.216;2023-12-29T06:10:21;3.60;;;0.50;;
12681;SDS011;6405;59.208;18.216;2023-12-29T06:12:47;4.50;;;0.73;;
12681;SDS011;6405;59.208;18.216;2023-12-29T06:15:13;6.27;;;1.00;;
12681;SDS011;6405;59.208;18.216;2023-12-29T06:17:41;9.30;;;0.70;;
12681;SDS011;6405;59.208;18.216;2023-12-29T06:20:08;7.03;;;0.87;;
12681;SDS011;6405;59.208;18.216;2023-12-29T06:22:38;2.57;;;0.50;;
12681;SDS011;6405;59.208;18.216;2023-12-29T06:25:05;1.87;;;0.40;;
12681;SDS011;6405;59.208;18.216;2023-12-29T06:27:34;5.13;;;0.60;;
12681;SDS011;6405;59.208;18.216;2023-12-29T06:30:02;2.60;;;0.90;;
12681;SDS011;6405;59.208;18.216;2023-12-29T06:32:31;2.30;;;1.07;;
12681;SDS011;6405;59.208;18.216;2023-12-29T06:34:57;1.63;;;0.83;;
12681;SDS011;6405;59.208;18.216;2023-12-29T06:37:23;2.70;;;0.80;;
12681;SDS011;6405;59.208;18.216;2023-12-29T06:39:49;4.57;;;1.57;;
12681;SDS011;6405;59.208;18.216;2023-12-29T06:42:14;2.37;;;0.87;;
12681;SDS011;6405;59.208;18.216;2023-12-29T06:44:40;0.53;;;0.53;;
12681;SDS011;6405;59.208;18.216;2023-12-29T06:47:06;4.27;;;1.03;;
12681;SDS011;6405;59.208;18.216;2023-12-29T06:49:34;1.43;;;0.60;;
12681;SDS011;6405;59.208;18.216;2023-12-29T06:52:00;4.87;;;0.87;;
12681;SDS011;6405;59.208;18.216;2023-12-29T06:54:26;4.37;;;1.10;;
12681;SDS011;6405;59.208;18.216;2023-12-29T06:56:52;7.27;;;1.10;;
12681;SDS011;6405;59.208;18.216;2023-12-29T06:59:18;3.17;;;1.30;;
12681;SDS011;6405;59.208;18.216;2023-12-29T07:01:45;7.87;;;1.50;;
12681;SDS011;6405;59.208;18.216;2023-12-29T07:04:11;5.10;;;2.00;;
12681;SDS011;6405;59.208;18.216;2023-12-29T07:06:37;7.57;;;2.73;;
12681;SDS011;6405;59.208;18.216;2023-12-29T07:09:03;6.90;;;2.50;;
12681;SDS011;6405;59.208;18.216;2023-12-29T07:11:29;8.87;;;3.27;;
12681;SDS011;6405;59.208;18.216;2023-12-29T07:13:55;10.77;;;3.37;;
12681;SDS011;6405;59.208;18.216;2023-12-29T07:16:21;12.03;;;4.93;;
12681;SDS011;6405;59.208;18.216;2023-12-29T07:18:47;11.57;;;3.60;;
12681;SDS011;6405;59.208;18.216;2023-12-29T07:21:14;11.63;;;3.37;;
12681;SDS011;6405;59.208;18.216;2023-12-29T07:23:41;13.87;;;4.43;;
12681;SDS011;6405;59.208;18.216;2023-12-29T07:26:07;9.97;;;3.63;;
12681;SDS011;6405;59.208;18.216;2023-12-29T07:28:33;14.03;;;3.93;;
12681;SDS011;6405;59.208;18.216;2023-12-29T07:30:59;16.20;;;3.20;;
12681;SDS011;6405;59.208;18.216;2023-12-29T07:33:25;21.43;;;3.90;;
12681;SDS011;6405;59.208;18.216;2023-12-29T07:35:51;12.10;;;3.17;;
12681;SDS011;6405;59.208;18.216;2023-12-29T07:38:17;12.30;;;3.90;;
12681;SDS011;6405;59.208;18.216;2023-12-29T07:40:43;7.90;;;3.50;;
12681;SDS011;6405;59.208;18.216;2023-12-29T07:43:09;19.13;;;4.40;;
12681;SDS011;6405;59.208;18.216;2023-12-29T07:45:34;13.63;;;3.73;;
12681;SDS011;6405;59.208;18.216;2023-12-29T07:48:03;9.73;;;3.80;;
12681;SDS011;6405;59.208;18.216;2023-12-29T07:50:29;12.70;;;4.13;;
12681;SDS011;6405;59.208;18.216;2023-12-29T07:52:55;12.17;;;3.50;;
12681;SDS011;6405;59.208;18.216;2023-12-29T07:55:21;15.03;;;3.63;;
12681;SDS011;6405;59.208;18.216;2023-12-29T07:57:47;11.50;;;3.00;;
12681;SDS011;6405;59.208;18.216;2023-12-29T08:00:16;12.30;;;2.90;;
12681;SDS011;6405;59.208;18.216;2023-12-29T08:02:42;10.37;;;3.20;;
12681;SDS011;6405;59.208;18.216;2023-12-29T08:05:08;12.27;;;3.73;;
12681;SDS011;6405;59.208;18.216;2023-12-29T08:07:34;13.63;;;3.63;;
12681;SDS011;6405;59.208;18.216;2023-12-29T08:10:01;7.80;;;3.23;;
12681;SDS011;6405;59.208;18.216;2023-12-29T08:12:29;16.43;;;3.17;;
12681;SDS011;6405;59.208;18.216;2023-12-29T08:14:55;10.80;;;3.03;;
12681;SDS011;6405;59.208;18.216;2023-12-29T08:17:21;10.47;;;2.77;;
12681;SDS011;6405;59.208;18.216;2023-12-29T08:19:47;9.27;;;3.03;;
12681;SDS011;6405;59.208;18.216;2023-12-29T08:22:13;11.27;;;2.73;;
12681;SDS011;6405;59.208;18.216;2023-12-29T08:24:41;12.20;;;2.90;;
12681;SDS011;6405;59.208;18.216;2023-12-29T08:27:12;9.60;;;2.60;;
12681;SDS011;6405;59.208;18.216;2023-12-29T08:29:38;11.30;;;3.20;;
12681;SDS011;6405;59.208;18.216;2023-12-29T08:32:04;8.23;;;2.23;;
12681;SDS011;6405;59.208;18.216;2023-12-29T08:34:30;6.47;;;2.87;;
12681;SDS011;6405;59.208;18.216;2023-12-29T08:36:56;10.77;;;2.70;;
12681;SDS011;6405;59.208;18.216;2023-12-29T08:39:22;5.63;;;2.27;;
12681;SDS011;6405;59.208;18.216;2023-12-29T08:41:48;9.33;;;3.13;;
12681;SDS011;6405;59.208;18.216;2023-12-29T08:44:16;5.33;;;2.23;;
12681;SDS011;6405;59.208;18.216;2023-12-29T08:46:42;7.13;;;2.40;;
12681;SDS011;6405;59.208;18.216;2023-12-29T08:49:08;6.23;;;1.97;;
12681;SDS011;6405;59.208;18.216;2023-12-29T08:51:34;4.80;;;2.03;;
12681;SDS011;6405;59.208;18.216;2023-12-29T08:53:59;6.90;;;2.17;;
12681;SDS011;6405;59.208;18.216;2023-12-29T08:56:25;7.63;;;2.00;;
12681;SDS011;6405;59.208;18.216;2023-12-29T08:58:51;8.03;;;2.00;;
12681;SDS011;6405;59.208;18.216;2023-12-29T09:01:17;12.83;;;2.27;;
12681;SDS011;6405;59.208;18.216;2023-12-29T09:03:43;8.13;;;1.93;;
12681;SDS011;6405;59.208;18.216;2023-12-29T09:06:09;8.47;;;2.07;;
12681;SDS011;6405;59.208;18.216;2023-12-29T09:08:35;7.90;;;2.67;;
12681;SDS011;6405;59.208;18.216;2023-12-29T09:11:01;7.10;;;2.40;;
12681;SDS011;6405;59.208;18.216;2023-12-29T09:13:27;9.43;;;2.17;;
12681;SDS011;6405;59.208;18.216;2023-12-29T09:15:56;9.77;;;1.90;;
12681;SDS011;6405;59.208;18.216;2023-12-29T09:18:22;6.83;;;1.70;;
12681;SDS011;6405;59.208;18.216;2023-12-29T09:20:48;5.47;;;1.73;;
12681;SDS011;6405;59.208;18.216;2023-12-29T09:23:13;4.87;;;2.03;;
12681;SDS011;6405;59.208;18.216;2023-12-29T09:25:40;6.30;;;1.63;;
12681;SDS011;6405;59.208;18.216;2023-12-29T09:28:06;7.60;;;1.87;;
12681;SDS011;6405;59.208;18.216;2023-12-29T09:30:32;9.93;;;2.40;;
12681;SDS011;6405;59.208;18.216;2023-12-29T09:32:57;9.90;;;2.30;;
12681;SDS011;6405;59.208;18.216;2023-12-29T09:35:23;12.67;;;2.40;;
12681;SDS011;6405;59.208;18.216;2023-12-29T09:37:49;6.83;;;1.53;;
12681;SDS011;6405;59.208;18.216;2023-12-29T09:40:15;4.53;;;1.90;;
12681;SDS011;6405;59.208;18.216;2023-12-29T09:42:42;9.97;;;2.17;;
12681;SDS011;6405;59.208;18.216;2023-12-29T09:45:12;5.57;;;1.90;;
12681;SDS011;6405;59.208;18.216;2023-12-29T09:47:39;9.80;;;1.80;;
12681;SDS011;6405;59.208;18.216;2023-12-29T09:50:15;7.50;;;1.80;;
12681;SDS011;6405;59.208;18.216;2023-12-29T09:52:41;6.77;;;1.97;;
12681;SDS011;6405;59.208;18.216;2023-12-29T09:55:08;8.37;;;2.07;;
12681;SDS011;6405;59.208;18.216;2023-12-29T09:57:38;7.23;;;1.90;;
12681;SDS011;6405;59.208;18.216;2023-12-29T10:00:04;10.30;;;2.30;;
12681;SDS011;6405;59.208;18.216;2023-12-29T10:02:31;9.07;;;2.30;;
12681;SDS011;6405;59.208;18.216;2023-12-29T10:05:00;7.73;;;1.83;;
12681;SDS011;6405;59.208;18.216;2023-12-29T10:07:28;7.73;;;2.23;;
12681;SDS011;6405;59.208;18.216;2023-12-29T10:09:57;7.00;;;2.00;;
12681;SDS011;6405;59.208;18.216;2023-12-29T10:12:24;6.23;;;1.90;;
12681;SDS011;6405;59.208;18.216;2023-12-29T10:17:57;7.97;;;2.27;;
12681;SDS011;6405;59.208;18.216;2023-12-29T10:23:05;11.00;;;3.00;;
12681;SDS011;6405;59.208;18.216;2023-12-29T10:25:38;7.17;;;2.00;;
12681;SDS011;6405;59.208;18.216;2023-12-29T10:28:04;9.13;;;2.63;;
12681;SDS011;6405;59.208;18.216;2023-12-29T10:30:31;13.37;;;3.40;;
12681;SDS011;6405;59.208;18.216;2023-12-29T10:32:57;16.77;;;3.23;;
12681;SDS011;6405;59.208;18.216;2023-12-29T10:35:25;9.23;;;2.57;;
12681;SDS011;6405;59.208;18.216;2023-12-29T10:37:51;12.93;;;2.40;;
12681;SDS011;6405;59.208;18.216;2023-12-29T10:40:19;15.10;;;2.57;;
12681;SDS011;6405;59.208;18.216;2023-12-29T10:42:52;16.37;;;2.37;;
12681;SDS011;6405;59.208;18.216;2023-12-29T10:45:19;14.37;;;2.80;;
12681;SDS011;6405;59.208;18.216;2023-12-29T10:47:44;7.03;;;2.30;;
12681;SDS011;6405;59.208;18.216;2023-12-29T10:50:10;11.37;;;2.80;;
12681;SDS011;6405;59.208;18.216;2023-12-29T10:52:36;9.93;;;3.10;;
12681;SDS011;6405;59.208;18.216;2023-12-29T10:55:06;13.10;;;2.40;;
12681;SDS011;6405;59.208;18.216;2023-12-29T10:57:33;11.00;;;2.77;;
12681;SDS011;6405;59.208;18.216;2023-12-29T10:59:59;11.40;;;2.70;;
12681;SDS011;6405;59.208;18.216;2023-12-29T11:02:26;9.20;;;2.80;;
12681;SDS011;6405;59.208;18.216;2023-12-29T11:05:00;8.30;;;2.57;;
12681;SDS011;6405;59.208;18.216;2023-12-29T11:07:31;9.13;;;2.23;;
12681;SDS011;6405;59.208;18.216;2023-12-29T11:10:05;11.53;;;2.33;;
12681;SDS011;6405;59.208;18.216;2023-12-29T11:12:33;9.70;;;2.57;;
12681;SDS011;6405;59.208;18.216;2023-12-29T11:15:03;7.60;;;2.43;;
12681;SDS011;6405;59.208;18.216;2023-12-29T11:17:31;11.00;;;2.70;;
12681;SDS011;6405;59.208;18.216;2023-12-29T11:19:59;12.90;;;2.67;;
12681;SDS011;6405;59.208;18.216;2023-12-29T11:22:29;12.10;;;2.67;;
12681;SDS011;6405;59.208;18.216;2023-12-29T11:24:59;11.67;;;2.20;;
12681;SDS011;6405;59.208;18.216;2023-12-29T11:27:26;8.10;;;2.33;;
12681;SDS011;6405;59.208;18.216;2023-12-29T11:29:54;11.47;;;2.70;;
12681;SDS011;6405;59.208;18.216;2023-12-29T11:32:23;12.67;;;3.50;;
12681;SDS011;6405;59.208;18.216;2023-12-29T11:40:45;10.07;;;2.57;;
12681;SDS011;6405;59.208;18.216;2023-12-29T11:43:16;9.67;;;2.63;;
12681;SDS011;6405;59.208;18.216;2023-12-29T11:45:43;12.50;;;2.97;;
12681;SDS011;6405;59.208;18.216;2023-12-29T11:48:10;10.90;;;2.83;;
12681;SDS011;6405;59.208;18.216;2023-12-29T11:50:37;15.00;;;2.93;;
12681;SDS011;6405;59.208;18.216;2023-12-29T11:53:05;9.07;;;3.07;;
12681;SDS011;6405;59.208;18.216;2023-12-29T11:55:35;10.70;;;2.83;;
12681;SDS011;6405;59.208;18.216;2023-12-29T11:58:24;11.53;;;3.07;;
12681;SDS011;6405;59.208;18.216;2023-12-29T12:00:53;12.30;;;2.67;;
12681;SDS011;6405;59.208;18.216;2023-12-29T12:03:25;10.60;;;2.80;;
12681;SDS011;6405;59.208;18.216;2023-12-29T12:05:52;13.10;;;3.40;;
12681;SDS011;6405;59.208;18.216;2023-12-29T12:10:56;12.67;;;3.30;;
12681;SDS011;6405;59.208;18.216;2023-12-29T12:13:46;14.20;;;3.07;;
12681;SDS011;6405;59.208;18.216;2023-12-29T12:19:11;17.33;;;2.57;;
12681;SDS011;6405;59.208;18.216;2023-12-29T12:21:38;7.67;;;2.67;;
12681;SDS011;6405;59.208;18.216;2023-12-29T12:24:04;17.60;;;3.13;;
12681;SDS011;6405;59.208;18.216;2023-12-29T12:26:31;10.27;;;2.60;;
12681;SDS011;6405;59.208;18.216;2023-12-29T12:28:57;15.83;;;3.17;;
12681;SDS011;6405;59.208;18.216;2023-12-29T12:31:24;10.77;;;2.67;;
12681;SDS011;6405;59.208;18.216;2023-12-29T12:33:56;15.90;;;3.13;;
12681;SDS011;6405;59.208;18.216;2023-12-29T12:36:22;16.30;;;3.00;;
12681;SDS011;6405;59.208;18.216;2023-12-29T12:38:55;12.67;;;2.80;;
12681;SDS011;6405;59.208;18.216;2023-12-29T12:41:22;10.37;;;2.70;;
12681;SDS011;6405;59.208;18.216;2023-12-29T12:43:50;12.00;;;2.90;;
12681;SDS011;6405;59.208;18.216;2023-12-29T12:46:29;19.67;;;3.17;;
12681;SDS011;6405;59.208;18.216;2023-12-29T12:48:58;12.60;;;2.70;;
12681;SDS011;6405;59.208;18.216;2023-12-29T12:51:24;13.43;;;3.13;;
12681;SDS011;6405;59.208;18.216;2023-12-29T12:53:50;7.67;;;3.00;;
12681;SDS011;6405;59.208;18.216;2023-12-29T12:56:18;14.37;;;3.20;;
12681;SDS011;6405;59.208;18.216;2023-12-29T12:58:45;16.37;;;3.57;;
12681;SDS011;6405;59.208;18.216;2023-12-29T13:01:11;15.27;;;3.33;;
12681;SDS011;6405;59.208;18.216;2023-12-29T13:03:37;14.83;;;3.80;;
12681;SDS011;6405;59.208;18.216;2023-12-29T13:06:04;9.70;;;2.70;;
12681;SDS011;6405;59.208;18.216;2023-12-29T13:08:30;16.07;;;4.43;;
12681;SDS011;6405;59.208;18.216;2023-12-29T13:10:57;14.83;;;3.17;;
12681;SDS011;6405;59.208;18.216;2023-12-29T13:13:34;17.50;;;3.60;;
12681;SDS011;6405;59.208;18.216;2023-12-29T13:16:01;18.63;;;4.10;;
12681;SDS011;6405;59.208;18.216;2023-12-29T13:18:30;7.60;;;2.80;;
12681;SDS011;6405;59.208;18.216;2023-12-29T13:20:56;16.27;;;4.10;;
12681;SDS011;6405;59.208;18.216;2023-12-29T13:23:26;12.00;;;3.53;;
12681;SDS011;6405;59.208;18.216;2023-12-29T13:26:02;14.60;;;3.80;;
12681;SDS011;6405;59.208;18.216;2023-12-29T13:28:32;19.33;;;4.17;;
12681;SDS011;6405;59.208;18.216;2023-12-29T13:30:59;14.87;;;4.30;;
12681;SDS011;6405;59.208;18.216;2023-12-29T13:36:03;14.53;;;4.43;;
12681;SDS011;6405;59.208;18.216;2023-12-29T13:38:58;15.90;;;3.37;;
12681;SDS011;6405;59.208;18.216;2023-12-29T13:41:32;19.67;;;4.23;;
12681;SDS011;6405;59.208;18.216;2023-12-29T13:43:59;13.93;;;3.70;;
12681;SDS011;6405;59.208;18.216;2023-12-29T13:46:25;18.73;;;3.57;;
12681;SDS011;6405;59.208;18.216;2023-12-29T13:48:51;14.53;;;5.10;;
12681;SDS011;6405;59.208;18.216;2023-12-29T13:51:24;14.57;;;2.90;;
12681;SDS011;6405;59.208;18.216;2023-12-29T13:53:57;12.20;;;3.20;;
12681;SDS011;6405;59.208;18.216;2023-12-29T13:56:24;13.77;;;3.27;;
12681;SDS011;6405;59.208;18.216;2023-12-29T13:58:52;13.27;;;3.10;;
12681;SDS011;6405;59.208;18.216;2023-12-29T14:01:18;12.87;;;3.00;;
12681;SDS011;6405;59.208;18.216;2023-12-29T14:03:51;16.23;;;3.13;;
12681;SDS011;6405;59.208;18.216;2023-12-29T14:06:27;14.17;;;3.30;;
12681;SDS011;6405;59.208;18.216;2023-12-29T14:08:57;14.47;;;3.27;;
12681;SDS011;6405;59.208;18.216;2023-12-29T14:11:23;14.03;;;4.03;;
12681;SDS011;6405;59.208;18.216;2023-12-29T14:13:48;16.20;;;3.70;;
12681;SDS011;6405;59.208;18.216;2023-12-29T14:16:14;15.30;;;4.07;;
12681;SDS011;6405;59.208;18.216;2023-12-29T14:21:24;15.37;;;4.30;;
12681;SDS011;6405;59.208;18.216;2023-12-29T14:26:25;21.90;;;4.00;;
12681;SDS011;6405;59.208;18.216;2023-12-29T14:29:01;10.63;;;3.80;;
12681;SDS011;6405;59.208;18.216;2023-12-29T14:31:26;13.87;;;3.77;;
12681;SDS011;6405;59.208;18.216;2023-12-29T14:33:52;19.07;;;4.70;;
12681;SDS011;6405;59.208;18.216;2023-12-29T14:36:18;16.47;;;5.10;;
12681;SDS011;6405;59.208;18.216;2023-12-29T14:38:44;21.43;;;4.00;;
12681;SDS011;6405;59.208;18.216;2023-12-29T14:41:09;24.17;;;4.97;;
12681;SDS011;6405;59.208;18.216;2023-12-29T14:43:35;11.93;;;3.90;;
12681;SDS011;6405;59.208;18.216;2023-12-29T14:46:01;11.20;;;3.60;;
12681;SDS011;6405;59.208;18.216;2023-12-29T14:48:27;17.53;;;3.80;;
12681;SDS011;6405;59.208;18.216;2023-12-29T14:50:53;16.90;;;4.47;;
12681;SDS011;6405;59.208;18.216;2023-12-29T14:53:20;16.60;;;3.87;;
12681;SDS011;6405;59.208;18.216;2023-12-29T14:55:46;13.00;;;3.07;;
12681;SDS011;6405;59.208;18.216;2023-12-29T14:58:11;21.27;;;3.50;;
12681;SDS011;6405;59.208;18.216;2023-12-29T15:00:37;13.80;;;2.90;;
12681;SDS011;6405;59.208;18.216;2023-12-29T15:03:03;15.87;;;3.40;;
12681;SDS011;6405;59.208;18.216;2023-12-29T15:05:28;19.00;;;3.03;;
12681;SDS011;6405;59.208;18.216;2023-12-29T15:07:54;6.93;;;2.40;;
12681;SDS011;6405;59.208;18.216;2023-12-29T15:10:20;7.00;;;2.20;;